メインページ
METAR-TAF:

METAR-TAF

空港 :

Oswego County Airport

フルトン, ニューヨーク, アメリカ合衆国

緯度: 43-21-03N, 経度: 076-23-17W, 海抜: 145m

現時点の気象観測

当レポートは51分前の19:54(UTC)に作成
西の風 9kt
気温 28°C
湿度 51%
気圧 1016 hPa
視程: 16.1km
晴天

METAR: KFZY 191954Z AUTO 28009KT 10SM CLR 28/17 A2999 RMK AO2 SLP152 T02780172

時間: 16:45 (20:45 UTC)


TAF: 見つかりません

4,000以上の空港の気象観測と天気予報(METAR報とTAF報)

利用可能な観測所は地図上に黄色い丸と赤い丸で示す。

丸の上にカーソルを重ねると観測所名を参照できる。

次にクリックすると気象観測と天気予報を参照できる。

マップの切り替え:黒色「×」印の緑ボタンをクリックして拡大、「-」印の緑ボタンをクリックして縮小、緑色の三角印をクリックして隣りの地図に切り替え


METAR-TAF: